createdAt,value
2022-08-11T00:00:00.745Z,20.10
2022-08-11T00:02:34.954Z,20.20
2022-08-11T00:05:07.202Z,20.20
2022-08-11T00:07:36.566Z,20.10
2022-08-11T00:10:05.100Z,20.10
2022-08-11T00:12:33.525Z,20.20
2022-08-11T00:15:03.418Z,20.20
2022-08-11T00:17:34.940Z,20.30
2022-08-11T00:20:11.993Z,20.30
2022-08-11T00:22:49.802Z,20.20
2022-08-11T00:25:19.941Z,20.20
2022-08-11T00:27:50.484Z,20.00
2022-08-11T00:30:19.895Z,20.00
2022-08-11T00:32:56.369Z,19.70
2022-08-11T00:35:53.963Z,19.60
2022-08-11T00:38:18.801Z,19.50
2022-08-11T00:40:56.204Z,19.50
2022-08-11T00:43:42.099Z,19.40
2022-08-11T00:46:17.239Z,19.30
2022-08-11T00:48:59.371Z,19.40
2022-08-11T00:52:05.136Z,19.30
2022-08-11T00:55:10.508Z,19.20
2022-08-11T00:58:12.307Z,19.00
2022-08-11T01:01:04.109Z,18.90
2022-08-11T01:04:00.661Z,18.80
2022-08-11T01:06:49.739Z,18.70
2022-08-11T01:09:32.970Z,18.70
2022-08-11T01:12:19.974Z,18.60
2022-08-11T01:15:24.386Z,18.40
2022-08-11T01:18:31.485Z,18.40
2022-08-11T01:21:27.214Z,18.50
2022-08-11T01:24:38.702Z,18.30
2022-08-11T01:27:27.461Z,18.30
2022-08-11T01:30:27.997Z,18.40
2022-08-11T01:33:43.505Z,18.40
2022-08-11T01:36:53.611Z,18.40
2022-08-11T01:39:59.900Z,18.40
2022-08-11T01:43:31.338Z,18.40
2022-08-11T01:46:03.641Z,18.50
2022-08-11T01:48:41.941Z,18.40
2022-08-11T01:51:20.815Z,18.50
2022-08-11T01:54:00.509Z,18.50
2022-08-11T01:56:43.341Z,18.50
2022-08-11T01:59:18.337Z,18.50
2022-08-11T02:02:07.025Z,18.50
2022-08-11T02:04:39.297Z,18.50
2022-08-11T02:07:19.757Z,18.50
2022-08-11T02:10:02.171Z,18.50
2022-08-11T02:12:52.304Z,18.50
2022-08-11T02:15:27.904Z,18.40
2022-08-11T02:18:05.121Z,18.30
2022-08-11T02:20:55.998Z,18.30
2022-08-11T02:24:07.106Z,18.30
2022-08-11T02:26:40.437Z,18.30
2022-08-11T02:29:21.261Z,18.20
2022-08-11T02:32:28.875Z,18.20
2022-08-11T02:35:11.836Z,18.20
2022-08-11T02:37:51.941Z,18.20
2022-08-11T02:40:35.337Z,18.00
2022-08-11T02:43:12.111Z,18.10
2022-08-11T02:45:50.029Z,18.10
2022-08-11T02:48:51.564Z,18.10
2022-08-11T02:51:26.598Z,18.00
2022-08-11T02:54:06.473Z,18.00
2022-08-11T02:56:52.067Z,18.00
2022-08-11T02:59:54.304Z,18.00
2022-08-11T03:02:33.062Z,18.00
2022-08-11T03:05:17.719Z,17.90
2022-08-11T03:08:02.902Z,17.90
2022-08-11T03:10:42.522Z,17.90
2022-08-11T03:13:35.697Z,18.00
2022-08-11T03:16:34.325Z,18.00
2022-08-11T03:19:24.044Z,17.90
2022-08-11T03:22:03.699Z,17.90
2022-08-11T03:24:50.394Z,17.90
2022-08-11T03:27:36.690Z,17.80
2022-08-11T03:30:11.548Z,17.70
2022-08-11T03:33:12.909Z,17.70
2022-08-11T03:35:49.451Z,17.70
2022-08-11T03:38:21.194Z,17.70
2022-08-11T03:42:01.239Z,17.60
2022-08-11T03:44:39.151Z,17.40
2022-08-11T03:47:32.045Z,17.30
2022-08-11T03:50:11.791Z,17.20
2022-08-11T03:52:50.625Z,17.10
2022-08-11T03:55:29.513Z,17.10
2022-08-11T03:58:24.825Z,17.00
2022-08-11T04:01:34.861Z,16.90
2022-08-11T04:04:32.568Z,16.80
2022-08-11T04:07:28.663Z,16.80
2022-08-11T04:10:32.830Z,16.80
2022-08-11T04:13:49.424Z,16.80
2022-08-11T04:16:29.589Z,16.80
2022-08-11T04:19:40.757Z,16.90
2022-08-11T04:22:48.857Z,16.90
2022-08-11T04:25:58.670Z,17.00
2022-08-11T04:28:55.887Z,17.00
2022-08-11T04:31:51.054Z,17.10
2022-08-11T04:34:38.303Z,17.20
2022-08-11T04:37:36.774Z,17.20
2022-08-11T04:40:36.229Z,17.30
2022-08-11T04:43:32.654Z,17.30
2022-08-11T04:46:29.803Z,17.30
2022-08-11T04:49:37.159Z,17.40
2022-08-11T04:52:45.197Z,17.40
2022-08-11T04:55:51.123Z,17.40
2022-08-11T04:58:43.100Z,17.50
2022-08-11T05:01:43.154Z,17.60
2022-08-11T05:05:08.417Z,17.50
2022-08-11T05:08:27.294Z,17.60
2022-08-11T05:11:17.363Z,17.60
2022-08-11T05:14:05.317Z,17.70
2022-08-11T05:17:00.296Z,17.80
2022-08-11T05:19:46.443Z,17.80
2022-08-11T05:22:33.492Z,17.80
2022-08-11T05:26:43.520Z,17.90
2022-08-11T05:28:38.355Z,18.00
2022-08-11T05:31:30.113Z,18.00
2022-08-11T05:34:19.361Z,18.00
2022-08-11T05:36:50.534Z,18.10
2022-08-11T05:39:39.624Z,18.20
2022-08-11T05:42:30.486Z,18.30
2022-08-11T05:45:23.077Z,18.40
2022-08-11T05:48:08.949Z,18.80
2022-08-11T05:50:54.907Z,19.10
2022-08-11T05:53:45.740Z,19.30
2022-08-11T05:56:20.698Z,19.20
2022-08-11T05:58:52.306Z,19.10
2022-08-11T06:01:26.632Z,19.30
2022-08-11T06:04:19.584Z,19.40
2022-08-11T06:06:53.087Z,19.50
2022-08-11T06:09:27.429Z,19.40
2022-08-11T06:11:59.257Z,19.30
2022-08-11T06:14:27.972Z,19.40
2022-08-11T06:17:02.898Z,19.50
2022-08-11T06:19:36.175Z,19.40
2022-08-11T06:22:06.276Z,19.50
2022-08-11T06:24:37.333Z,19.40
2022-08-11T06:27:14.778Z,19.30
2022-08-11T06:29:54.426Z,19.50
2022-08-11T06:32:27.550Z,19.70
2022-08-11T06:35:13.148Z,19.70
2022-08-11T06:37:49.112Z,19.90
2022-08-11T06:40:38.020Z,20.10
2022-08-11T06:43:17.826Z,20.60
2022-08-11T06:45:54.190Z,20.60
2022-08-11T06:48:25.225Z,20.90
2022-08-11T06:51:12.622Z,21.20
2022-08-11T06:53:56.266Z,21.20
2022-08-11T06:57:12.171Z,21.20
2022-08-11T06:59:59.796Z,21.20
2022-08-11T07:02:33.768Z,21.30
2022-08-11T07:05:08.110Z,21.40
2022-08-11T07:08:36.266Z,21.50
2022-08-11T07:11:45.579Z,21.50
2022-08-11T07:14:38.455Z,21.60
2022-08-11T07:17:09.869Z,21.70
2022-08-11T07:19:59.992Z,21.80
2022-08-11T07:23:05.600Z,21.90
2022-08-11T07:25:55.088Z,22.10
2022-08-11T07:28:43.807Z,22.50
2022-08-11T07:31:15.836Z,22.70
2022-08-11T07:34:06.894Z,23.00
2022-08-11T07:36:41.362Z,23.20
2022-08-11T07:39:18.175Z,23.50
2022-08-11T07:41:48.082Z,23.60
2022-08-11T07:44:17.440Z,23.80
2022-08-11T07:47:06.397Z,23.80
2022-08-11T07:49:54.965Z,24.00
2022-08-11T07:52:30.574Z,24.10
2022-08-11T07:55:02.577Z,24.30
2022-08-11T07:58:10.209Z,24.30
2022-08-11T08:01:01.119Z,24.40
2022-08-11T08:03:54.008Z,24.60
2022-08-11T08:06:40.527Z,25.00
2022-08-11T08:09:27.014Z,25.30
2022-08-11T08:12:14.982Z,25.50
2022-08-11T08:15:01.148Z,25.80
2022-08-11T08:18:20.555Z,26.10
2022-08-11T08:20:39.643Z,26.30
2022-08-11T08:23:09.434Z,26.50
2022-08-11T08:25:40.430Z,26.80
2022-08-11T08:28:15.879Z,26.90
2022-08-11T08:30:51.130Z,27.10
2022-08-11T08:33:22.087Z,27.40
2022-08-11T08:36:11.214Z,27.40
2022-08-11T08:38:41.962Z,27.60
2022-08-11T08:41:13.140Z,27.70
2022-08-11T08:43:50.001Z,27.90
2022-08-11T08:46:23.248Z,28.10
2022-08-11T08:48:53.298Z,28.20
2022-08-11T08:52:01.092Z,27.90
2022-08-11T08:54:30.010Z,27.90
2022-08-11T08:56:58.968Z,28.00
2022-08-11T08:59:47.478Z,28.40
2022-08-11T09:02:33.703Z,28.50
2022-08-11T09:05:15.797Z,28.80
2022-08-11T09:07:47.391Z,28.90
2022-08-11T09:10:18.619Z,28.90
2022-08-11T09:12:47.090Z,29.10
2022-08-11T09:15:19.871Z,29.20
2022-08-11T09:17:51.352Z,29.20
2022-08-11T09:20:22.591Z,29.00
2022-08-11T09:26:19.043Z,28.50
2022-08-11T09:28:49.743Z,28.70
2022-08-11T09:31:21.594Z,28.80
2022-08-11T09:33:55.263Z,28.40
2022-08-11T09:36:41.389Z,28.60
2022-08-11T09:39:31.180Z,28.80
2022-08-11T09:42:03.463Z,28.80
2022-08-11T09:44:48.845Z,28.50
2022-08-11T09:47:24.832Z,29.00
2022-08-11T09:50:00.336Z,29.00
2022-08-11T09:52:31.768Z,29.10
2022-08-11T09:55:00.856Z,29.40
2022-08-11T09:57:46.443Z,29.40
2022-08-11T10:00:15.938Z,29.10
2022-08-11T10:02:48.225Z,29.70
2022-08-11T10:05:37.037Z,29.50
2022-08-11T10:08:06.694Z,29.50
2022-08-11T10:10:38.517Z,29.50
2022-08-11T10:14:30.157Z,29.50
2022-08-11T10:16:16.271Z,29.80
2022-08-11T10:18:53.417Z,29.90
2022-08-11T10:21:29.110Z,30.00
2022-08-11T10:24:16.866Z,30.30
2022-08-11T10:26:54.559Z,30.00
2022-08-11T10:29:44.457Z,30.50
2022-08-11T10:32:52.222Z,30.90
2022-08-11T10:35:29.203Z,30.40
2022-08-11T10:38:15.685Z,30.00
2022-08-11T10:41:07.944Z,30.10
2022-08-11T10:43:59.345Z,30.00
2022-08-11T10:46:42.824Z,29.90
2022-08-11T10:49:11.278Z,30.30
2022-08-11T10:51:59.092Z,30.50
2022-08-11T10:54:44.690Z,30.90
2022-08-11T10:57:33.048Z,30.50
2022-08-11T11:00:02.531Z,30.90
2022-08-11T11:02:30.898Z,31.10
2022-08-11T11:05:03.607Z,31.20
2022-08-11T11:07:43.919Z,30.80
2022-08-11T11:10:12.456Z,30.60
2022-08-11T11:13:00.474Z,30.70
2022-08-11T11:15:50.155Z,30.90
2022-08-11T11:18:22.329Z,30.70
2022-08-11T11:20:57.374Z,30.30
2022-08-11T11:23:33.332Z,30.30
2022-08-11T11:26:35.616Z,30.90
2022-08-11T11:29:25.293Z,30.80
2022-08-11T11:32:07.678Z,31.40
2022-08-11T11:34:53.804Z,31.80
2022-08-11T11:37:23.737Z,31.60
2022-08-11T11:39:55.288Z,31.60
2022-08-11T11:42:24.034Z,31.70
2022-08-11T11:44:56.204Z,31.80
2022-08-11T11:47:26.331Z,31.90
2022-08-11T11:49:54.953Z,31.80
2022-08-11T11:52:25.336Z,32.20
2022-08-11T11:54:58.027Z,32.50
2022-08-11T11:57:59.320Z,32.50
2022-08-11T12:00:49.044Z,32.60
2022-08-11T12:03:18.308Z,32.70
2022-08-11T12:05:46.984Z,31.90
2022-08-11T12:08:16.546Z,31.90
2022-08-11T12:10:49.024Z,32.10
2022-08-11T12:13:36.232Z,32.00
2022-08-11T12:16:34.115Z,32.50
2022-08-11T12:18:56.380Z,32.50
2022-08-11T12:21:25.758Z,32.40
2022-08-11T12:24:13.269Z,32.70
2022-08-11T12:27:15.634Z,32.90
2022-08-11T12:29:51.360Z,32.50
2022-08-11T12:32:24.219Z,32.20
2022-08-11T12:34:52.376Z,32.40
2022-08-11T12:37:29.493Z,32.20
2022-08-11T12:40:43.589Z,32.00
2022-08-11T12:43:38.603Z,32.40
2022-08-11T12:46:10.041Z,32.70
2022-08-11T12:49:03.084Z,33.00
2022-08-11T12:52:13.914Z,33.00
2022-08-11T12:54:51.439Z,33.00
2022-08-11T12:57:44.892Z,32.00
2022-08-11T13:00:33.018Z,32.30
2022-08-11T13:03:19.241Z,32.60
2022-08-11T13:05:49.582Z,32.40
2022-08-11T13:08:18.420Z,32.80
2022-08-11T13:11:05.325Z,32.90
2022-08-11T13:13:54.948Z,33.10
2022-08-11T13:16:24.691Z,33.00
2022-08-11T13:18:53.777Z,33.00
2022-08-11T13:21:23.243Z,32.90
2022-08-11T13:23:59.448Z,33.10
2022-08-11T13:26:43.585Z,33.30
2022-08-11T13:29:21.640Z,33.10
2022-08-11T13:31:52.426Z,32.80
2022-08-11T13:34:21.475Z,32.80
2022-08-11T13:36:55.329Z,32.60
2022-08-11T13:39:25.036Z,32.80
2022-08-11T13:41:56.589Z,32.90
2022-08-11T13:44:28.104Z,32.60
2022-08-11T13:47:01.872Z,33.00
2022-08-11T13:49:30.999Z,33.20
2022-08-11T13:52:00.284Z,33.10
2022-08-11T13:54:32.341Z,33.20
2022-08-11T13:57:08.279Z,33.10
2022-08-11T13:59:49.938Z,33.30
2022-08-11T14:02:30.763Z,32.70
2022-08-11T14:05:09.303Z,32.50
2022-08-11T14:07:40.888Z,32.80
2022-08-11T14:10:12.295Z,32.90
2022-08-11T14:13:01.903Z,32.70
2022-08-11T14:15:33.935Z,32.80
2022-08-11T14:18:06.187Z,32.40
2022-08-11T14:20:51.146Z,32.80
2022-08-11T14:23:20.444Z,33.00
2022-08-11T14:26:07.394Z,32.50
2022-08-11T14:28:43.823Z,32.40
2022-08-11T14:31:15.476Z,32.40
2022-08-11T14:33:59.662Z,32.20
2022-08-11T14:36:35.986Z,32.40
2022-08-11T14:39:08.132Z,32.10
2022-08-11T14:42:11.398Z,31.80
2022-08-11T14:45:02.074Z,31.70
2022-08-11T14:47:35.256Z,31.40
2022-08-11T14:50:10.777Z,31.70
2022-08-11T14:52:46.679Z,31.60
2022-08-11T14:55:35.965Z,31.80
2022-08-11T14:58:07.653Z,32.20
2022-08-11T15:00:36.546Z,32.20
2022-08-11T15:03:11.850Z,32.40
2022-08-11T15:05:56.981Z,32.60
2022-08-11T15:08:52.133Z,32.40
2022-08-11T15:11:42.315Z,32.40
2022-08-11T15:14:34.900Z,32.20
2022-08-11T15:17:09.572Z,32.40
2022-08-11T15:20:02.001Z,32.30
2022-08-11T15:22:49.195Z,32.60
2022-08-11T15:25:17.225Z,32.80
2022-08-11T15:28:08.039Z,32.90
2022-08-11T15:30:55.137Z,32.80
2022-08-11T15:33:43.502Z,32.70
2022-08-11T15:36:32.571Z,32.80
2022-08-11T15:39:05.439Z,32.70
2022-08-11T15:41:58.987Z,32.80
2022-08-11T15:45:03.079Z,32.80
2022-08-11T15:47:42.142Z,32.40
2022-08-11T15:50:18.958Z,32.40
2022-08-11T15:52:52.018Z,32.30
2022-08-11T15:55:25.025Z,32.00
2022-08-11T15:58:13.137Z,32.20
2022-08-11T16:01:04.380Z,32.30
2022-08-11T16:04:07.619Z,32.00
2022-08-11T16:06:42.771Z,31.70
2022-08-11T16:09:19.148Z,31.70
2022-08-11T16:11:49.911Z,31.30
2022-08-11T16:14:37.740Z,31.40
2022-08-11T16:17:08.275Z,31.60
2022-08-11T16:19:38.097Z,31.40
2022-08-11T16:22:11.182Z,31.40
2022-08-11T16:27:02.420Z,31.60
2022-08-11T16:27:39.809Z,31.40
2022-08-11T16:30:09.075Z,31.20
2022-08-11T16:32:40.503Z,31.00
2022-08-11T16:35:29.419Z,31.00
2022-08-11T16:38:17.375Z,31.10
2022-08-11T16:40:47.956Z,31.10
2022-08-11T16:43:39.900Z,31.20
2022-08-11T16:46:32.640Z,31.20
2022-08-11T16:49:02.772Z,31.30
2022-08-11T16:51:31.871Z,31.30
2022-08-11T16:54:05.855Z,31.00
2022-08-11T16:56:37.713Z,30.90
2022-08-11T16:59:16.230Z,30.70
2022-08-11T17:01:48.880Z,30.50
2022-08-11T17:04:47.326Z,30.40
2022-08-11T17:07:42.351Z,30.40
2022-08-11T17:10:51.128Z,30.70
2022-08-11T17:13:26.896Z,30.60
2022-08-11T17:16:11.776Z,30.50
2022-08-11T17:18:49.979Z,30.50
2022-08-11T17:21:21.485Z,30.50
2022-08-11T17:23:52.791Z,30.30
2022-08-11T17:26:25.370Z,30.40
2022-08-11T17:28:58.733Z,30.50
2022-08-11T17:31:49.059Z,30.40
2022-08-11T17:34:34.623Z,30.40
2022-08-11T17:37:04.260Z,30.20
2022-08-11T17:39:33.724Z,30.20
2022-08-11T17:42:20.622Z,29.90
2022-08-11T17:45:07.645Z,29.80
2022-08-11T17:47:55.187Z,29.70
2022-08-11T17:50:24.092Z,29.70
2022-08-11T17:53:11.256Z,29.60
2022-08-11T17:55:58.634Z,29.60
2022-08-11T17:58:45.249Z,29.60
2022-08-11T18:01:14.941Z,29.60
2022-08-11T18:03:56.439Z,29.60
2022-08-11T18:06:33.711Z,29.30
2022-08-11T18:09:22.386Z,29.20
2022-08-11T18:12:11.708Z,29.10
2022-08-11T18:14:58.967Z,29.00
2022-08-11T18:17:44.859Z,28.90
2022-08-11T18:20:31.481Z,28.90
2022-08-11T18:23:20.445Z,28.70
2022-08-11T18:26:07.672Z,28.70
2022-08-11T18:29:01.916Z,28.70
2022-08-11T18:31:50.759Z,28.50
2022-08-11T18:34:48.557Z,28.30
2022-08-11T18:37:42.487Z,28.00
2022-08-11T18:40:32.747Z,27.60
2022-08-11T18:43:27.185Z,27.20
2022-08-11T18:46:17.847Z,27.20
2022-08-11T18:49:14.998Z,27.20
2022-08-11T18:52:06.119Z,27.20
2022-08-11T18:54:58.574Z,27.30
2022-08-11T18:57:49.837Z,27.30
2022-08-11T19:00:41.631Z,27.20
2022-08-11T19:03:29.529Z,27.10
2022-08-11T19:06:38.778Z,27.20
2022-08-11T19:09:31.403Z,27.20
2022-08-11T19:12:20.370Z,27.10
2022-08-11T19:15:09.343Z,27.20
2022-08-11T19:17:58.798Z,27.10
2022-08-11T19:20:45.936Z,27.10
2022-08-11T19:23:34.995Z,27.00
2022-08-11T19:26:22.904Z,26.90
2022-08-11T19:30:05.291Z,26.60
2022-08-11T19:32:18.972Z,26.50
2022-08-11T19:35:05.674Z,26.50
2022-08-11T19:37:52.774Z,26.30
2022-08-11T19:40:39.171Z,26.20
2022-08-11T19:43:27.110Z,26.10
2022-08-11T19:46:20.175Z,26.10
2022-08-11T19:49:10.175Z,26.00
2022-08-11T19:52:02.042Z,25.90
2022-08-11T19:54:51.763Z,25.80
2022-08-11T19:57:40.112Z,25.70
2022-08-11T20:00:30.041Z,25.60
2022-08-11T20:03:17.624Z,25.50
2022-08-11T20:06:05.591Z,25.40
2022-08-11T20:08:56.434Z,25.20
2022-08-11T20:11:45.458Z,25.20
2022-08-11T20:14:32.804Z,25.10
2022-08-11T20:17:23.475Z,25.10
2022-08-11T20:20:11.007Z,25.00
2022-08-11T20:22:58.013Z,25.00
2022-08-11T20:25:44.951Z,25.00
2022-08-11T20:28:35.207Z,25.00
2022-08-11T20:31:22.978Z,24.90
2022-08-11T20:34:09.044Z,24.80
2022-08-11T20:36:57.801Z,24.70
2022-08-11T20:39:45.715Z,24.70
2022-08-11T20:42:32.544Z,24.60
2022-08-11T20:45:23.487Z,24.40
2022-08-11T20:48:14.766Z,24.40
2022-08-11T20:51:06.478Z,24.40
2022-08-11T20:53:56.503Z,24.30
2022-08-11T20:56:44.329Z,24.20
2022-08-11T20:59:33.170Z,24.10
2022-08-11T21:02:27.059Z,24.00
2022-08-11T21:05:15.806Z,24.00
2022-08-11T21:08:09.397Z,23.90
2022-08-11T21:11:01.270Z,23.90
2022-08-11T21:13:59.028Z,23.70
2022-08-11T21:16:54.625Z,23.70
2022-08-11T21:19:55.184Z,23.70
2022-08-11T21:22:59.604Z,23.70
2022-08-11T21:25:55.625Z,23.70
2022-08-11T21:28:48.653Z,23.50
2022-08-11T21:31:35.582Z,23.50
2022-08-11T21:34:22.043Z,23.50
2022-08-11T21:37:08.439Z,23.40
2022-08-11T21:39:54.638Z,23.40
2022-08-11T21:42:41.118Z,23.30
2022-08-11T21:45:31.514Z,23.20
2022-08-11T21:48:17.771Z,23.10
2022-08-11T21:51:05.833Z,23.10
2022-08-11T21:53:52.750Z,23.10
2022-08-11T21:56:38.957Z,23.00
2022-08-11T21:59:24.992Z,22.90
2022-08-11T22:02:13.196Z,22.90
2022-08-11T22:04:59.864Z,22.90
2022-08-11T22:07:45.396Z,22.80
2022-08-11T22:10:40.600Z,22.70
2022-08-11T22:13:29.947Z,22.60
2022-08-11T22:16:16.039Z,22.50
2022-08-11T22:19:06.942Z,22.50
2022-08-11T22:22:02.952Z,22.50
2022-08-11T22:24:51.468Z,22.50
2022-08-11T22:27:37.238Z,22.60
2022-08-11T22:30:24.740Z,22.50
2022-08-11T22:33:10.748Z,22.50
2022-08-11T22:35:58.233Z,22.50
2022-08-11T22:38:45.272Z,22.50
2022-08-11T22:41:30.876Z,22.50
2022-08-11T22:44:16.749Z,22.40
2022-08-11T22:47:02.715Z,22.40
2022-08-11T22:49:57.707Z,22.40
2022-08-11T22:52:47.206Z,22.30
2022-08-11T22:55:33.512Z,22.30
2022-08-11T22:58:20.398Z,22.30
2022-08-11T23:01:06.517Z,22.20
2022-08-11T23:03:52.645Z,22.20
2022-08-11T23:06:39.125Z,22.20
2022-08-11T23:09:27.389Z,22.30
2022-08-11T23:12:13.412Z,22.20
2022-08-11T23:15:00.332Z,22.30
2022-08-11T23:17:46.621Z,22.20
2022-08-11T23:20:39.842Z,22.20
2022-08-11T23:23:28.887Z,22.20
2022-08-11T23:26:18.572Z,22.20
2022-08-11T23:29:06.163Z,22.20
2022-08-11T23:31:54.457Z,22.10
2022-08-11T23:35:04.738Z,22.10
2022-08-11T23:37:48.273Z,22.10
2022-08-11T23:40:33.738Z,22.00
2022-08-11T23:43:21.458Z,21.90
2022-08-11T23:46:06.998Z,21.80
2022-08-11T23:48:54.880Z,21.70
2022-08-11T23:51:41.624Z,21.50
2022-08-11T23:54:27.963Z,21.30
2022-08-11T23:57:13.832Z,21.20
